CQX weather

Chatham Municipal Airport
Chatham, Massachusetts, United States

Public forecast

Using degrees Fahrenheit for public forecast. Weather courtesy of forecast.io.

METAR (pilot weather report)

Retrieved 2019/05/21 00:52 UTC (1 hour ago):

KCQX 210052Z AUTO 23006KT 4SM -RA BR SCT004 BKN060 OVC080 15/14 A2974 RMK AO2 LTG DSNT N RAB31 SLP073 P0000 T01500139

TAF (pilot weather forecast)

Forecast is more than 12 hours old.

Closest forecast is Barnstable Municipal Boardman Polando Field, 13.1 nm (24.3 km) W. Retrieved 2019/05/20 00:28 UTC (1 day ago):

TAF KHYA 202326Z 2100/2124 22010KT P6SM VCSH BKN150 FM210100 22013KT P6SM VCSH BKN080 FM210300 23012KT 6SM BR BKN080 FM210500 26010KT 1 1/2SM BR BKN050 FM210700 29008KT P6SM SCT090 FM211000 28007KT P6SM SCT250 FM212000 31015G20KT P6SM SCT250